Freedom of the Seas — C6UZ7 — position and weather

sailwx.info

Track history (hours):
 
Tides and Currents Weather Stations Pressure Air Temp Water Temp Dewpoint Dewpoint Depression Visibility Wind Speed Wind Dir Waves Ship Positions

Freedom of the Seas

Last reported at 2017-Jun-28 20:00 UTC. Time now 2017-Jun-29 01:55 UTC.
Position N 43°12' E 009°30'.

Length 339 m; draft 9 m.

Type: Passenger vessel. MMSI: 309906000.

Wind from 250 at 39 knots

Barometer 1004.0 mb
Air temperature 23.0 ° C
Visibility: greater than 10.8 NM
Dewpoint 14.6 ° C
Water temperature 21.0 ° C

Date/timePositionNaut miles runAvg speedWind from/ knotsBaromVisibWave heightAir tempDewpointWater temp
2017-Jun-28 20:00N 43°12' E 009°30'14157.1 250 / 391004.010.8 23.014.621.0
2017-Jun-28 19:54N 43°26' E 009°32'718.6
2017-Jun-28 19:31N 43°33' E 009°35'918.8
2017-Jun-28 19:01N 43°41' E 009°41'1019.1
2017-Jun-28 18:31N 43°50' E 009°48'919.0
2017-Jun-28 18:01N 43°59' E 009°52'612.7
2017-Jun-28 17:30N 44°05' E 009°51'1 2.7
2017-Jun-28 16:59N 44°06' E 009°50'0 0.0
2017-Jun-28 16:29N 44°06' E 009°50'0 0.0
2017-Jun-28 15:59N 44°06' E 009°50'0 0.0
2017-Jun-28 15:29N 44°06' E 009°50'0 0.0
2017-Jun-28 14:59N 44°06' E 009°50'0 0.0
2017-Jun-28 14:29N 44°06' E 009°50'0 0.0
2017-Jun-28 13:29N 44°06' E 009°50'0 0.0
2017-Jun-28 12:59N 44°06' E 009°50'0 0.0
2017-Jun-28 12:29N 44°06' E 009°50'0 0.0
2017-Jun-28 11:59N 44°06' E 009°50'0 0.0
2017-Jun-28 11:29N 44°06' E 009°50'0 0.0
2017-Jun-28 10:59N 44°06' E 009°50'0 0.0
2017-Jun-28 10:29N 44°06' E 009°50'0 0.0
2017-Jun-28 09:59N 44°06' E 009°50'0 0.0
2017-Jun-28 09:29N 44°06' E 009°50'0 0.0
2017-Jun-28 08:59N 44°06' E 009°50'0 0.0
2017-Jun-28 08:26N 44°06' E 009°50'0 0.0
2017-Jun-28 07:59N 44°06' E 009°50'0 0.0
2017-Jun-28 07:29N 44°06' E 009°50'0 0.0
2017-Jun-28 06:59N 44°06' E 009°50'0 0.0
2017-Jun-28 06:29N 44°06' E 009°50'0 0.0
2017-Jun-28 05:56N 44°06' E 009°50'0 0.0
2017-Jun-28 05:29N 44°06' E 009°50'0 0.0
2017-Jun-28 04:59N 44°06' E 009°50'0 0.4
2017-Jun-28 04:30N 44°06' E 009°50'3 6.1
2017-Jun-28 04:00N 44°03' E 009°52'5 9.2
2017-Jun-28 03:30N 43°60' E 009°55'510.4
2017-Jun-28 03:00N 43°58' E 009°48'510.9
2017-Jun-28 02:30N 43°56' E 009°41'510.8
2017-Jun-28 02:00N 43°54' E 009°34'611.3
2017-Jun-28 01:30N 43°52' E 009°27'612.6
2017-Jun-28 01:00N 43°49' E 009°19'612.1
2017-Jun-28 00:30N 43°47' E 009°11'611.9
2017-Jun-28 00:00N 43°46' E 009°03'611.7
2017-Jun-27 23:30N 43°44' E 008°56'611.7
2017-Jun-27 23:00N 43°43' E 008°48'611.6
2017-Jun-27 22:30N 43°41' E 008°40'611.5
2017-Jun-27 22:00N 43°40' E 008°32'611.6
2017-Jun-27 21:30N 43°38' E 008°25'611.7
2017-Jun-27 21:00N 43°36' E 008°17'611.6
2017-Jun-27 20:30N 43°35' E 008°09'611.4
2017-Jun-27 19:58N 43°34' E 008°01'31 2.0
2017-Jun-27 04:10N 43°37' E 007°18'310.8
2017-Jun-27 03:52N 43°33' E 007°17'411.1
2017-Jun-27 03:28N 43°29' E 007°16'511.7
2017-Jun-27 03:01N 43°24' E 007°14'612.1
2017-Jun-27 02:31N 43°18' E 007°12'712.6
2017-Jun-27 01:58N 43°12' E 007°09'3312.6
2017-Jun-26 23:21N 42°47' E 006°39'512.9
2017-Jun-26 22:58N 42°45' E 006°33'1312.2
2017-Jun-26 21:56N 42°43' E 006°15'512.7
2017-Jun-26 21:30N 42°43' E 006°08'713.0
2017-Jun-26 20:56N 42°45' E 005°58'612.9
2017-Jun-26 20:28N 42°46' E 005°50'612.6
2017-Jun-26 19:58N 42°48' E 005°42'84 4.1
2017-Jun-25 23:24N 42°11' E 004°01'2214.3
2017-Jun-25 21:53N 41°54' E 003°42'514.0
2017-Jun-25 21:30N 41°50' E 003°38'713.8
2017-Jun-25 20:59N 41°45' E 003°31'713.7
2017-Jun-25 20:26N 41°40' E 003°24'613.8
2017-Jun-25 20:00N 41°36' E 003°18'713.8
2017-Jun-25 19:30N 41°32' E 003°10'713.8
2017-Jun-25 19:00N 41°28' E 003°02'714.0
2017-Jun-25 18:29N 41°25' E 002°54'714.0
2017-Jun-25 18:00N 41°22' E 002°46'713.9
2017-Jun-25 17:30N 41°20' E 002°37'714.1
2017-Jun-25 16:59N 41°19' E 002°27'714.3
2017-Jun-25 16:30N 41°17' E 002°18'611.4
2017-Jun-25 15:59N 41°18' E 002°10'4 7.6
2017-Jun-25 15:29N 41°21' E 002°11'0 0.0
2017-Jun-25 09:56N 41°22' E 002°11'0 0.0
2017-Jun-25 09:14N 41°22' E 002°11'0 0.0
2017-Jun-25 08:50N 41°22' E 002°11'0 0.0
2017-Jun-25 03:51N 41°22' E 002°11'0 1.2
2017-Jun-25 03:28N 41°21' E 002°10'1 3.0
2017-Jun-25 03:00N 41°20' E 002°10'4 8.8
2017-Jun-25 02:30N 41°16' E 002°13'612.5
2017-Jun-25 02:00N 41°16' E 002°21'613.0
2017-Jun-25 01:30N 41°16' E 002°30'713.6
2017-Jun-25 01:00N 41°17' E 002°39'714.1
2017-Jun-25 00:30N 41°17' E 002°48'714.0
2017-Jun-25 00:00N 41°17' E 002°58'714.2
2017-Jun-24 23:30N 41°16' E 003°07'714.0
2017-Jun-24 23:00N 41°16' E 003°16'915.4
2017-Jun-24 22:25N 41°15' E 003°28'717.9
2017-Jun-24 22:00N 41°16' E 003°38'1716.7
2017-Jun-24 21:00N 41°12' E 004°00'27517.1 200 / 161017.010.8 25.018.821.0
2017-Jun-24 04:51N 41°19' E 010°06'616.9
2017-Jun-24 04:29N 41°17' E 010°14'816.5
2017-Jun-24 03:59N 41°16' E 010°25'13416.8
2017-Jun-23 20:00N 40°30' E 013°12'2222.0 270 / 121017.010.8 24.019.421.0
2017-Jun-23 18:59N 40°31' E 013°41'817.2
2017-Jun-23 18:31N 40°32' E 013°52'917.2
2017-Jun-23 18:00N 40°36' E 014°01'917.6
2017-Jun-23 17:30N 40°43' E 014°09'816.7
2017-Jun-23 17:01N 40°49' E 014°17'2 2.9
2017-Jun-23 16:27N 40°50' E 014°16'0 0.0
2017-Jun-23 14:51N 40°50' E 014°16'0 0.0
2017-Jun-23 14:27N 40°50' E 014°16'0 0.0
2017-Jun-23 12:06N 40°50' E 014°16'0 0.0
2017-Jun-23 05:33N 40°50' E 014°16'0 0.0
2017-Jun-23 05:21N 40°50' E 014°16'1 0.6
2017-Jun-23 04:20N 40°50' E 014°16'1 4.3
2017-Jun-23 04:00N 40°49' E 014°17'1715.3
2017-Jun-23 02:54N 40°37' E 014°01'717.7
2017-Jun-23 02:30N 40°37' E 013°52'917.7
2017-Jun-23 02:00N 40°37' E 013°41'917.7
2017-Jun-23 01:31N 40°38' E 013°29'1717.6
2017-Jun-23 00:33N 40°37' E 013°07'117.9
2017-Jun-23 00:31N 40°37' E 013°06'1117.6
2017-Jun-22 23:53N 40°38' E 012°51'7018.1
2017-Jun-22 20:00N 41°30' E 011°48'41 2.3 250 / 161018.010.8 25.018.821.0
2017-Jun-22 02:26N 42°05' E 011°19'817.6
2017-Jun-22 02:00N 42°07' E 011°09'917.8
2017-Jun-22 01:30N 42°09' E 010°58'917.6
2017-Jun-22 01:00N 42°14' E 010°48'917.4
2017-Jun-22 00:28N 42°20' E 010°38'817.3
2017-Jun-21 23:59N 42°25' E 010°29'2217.7
2017-Jun-21 22:43N 42°41' E 010°07'718.1
2017-Jun-21 22:22N 42°44' E 009°59'617.6
2017-Jun-21 22:00N 42°47' E 009°52'1617.4
2017-Jun-21 21:06N 42°58' E 009°37'1020.0
2017-Jun-21 20:36N 43°08' E 009°34'220.3
2017-Jun-21 20:30N 43°10' E 009°33'1020.3
2017-Jun-21 20:00N 43°20' E 009°31'81392.9
2017-Jun-21 20:00N 43°12' E 009°30'1837.0 160 / 11017.010.8 24.017.721.0
2017-Jun-21 19:30N 43°30' E 009°33'918.2
2017-Jun-21 19:00N 43°38' E 009°39'918.2
2017-Jun-21 18:30N 43°46' E 009°45'918.2
2017-Jun-21 18:00N 43°54' E 009°51'917.6
2017-Jun-21 17:30N 44°03' E 009°52'4 8.1
2017-Jun-21 17:00N 44°06' E 009°50'0 0.1
2017-Jun-21 16:28N 44°06' E 009°50'0 0.0
2017-Jun-21 15:58N 44°06' E 009°50'0 0.0
2017-Jun-21 15:28N 44°06' E 009°50'0 0.0
2017-Jun-21 14:58N 44°06' E 009°50'0 0.0
2017-Jun-21 14:28N 44°06' E 009°50'0 0.0
2017-Jun-21 13:28N 44°06' E 009°50'0 0.0
2017-Jun-21 12:58N 44°06' E 009°50'0 0.0
2017-Jun-21 12:28N 44°06' E 009°50'0 0.0
2017-Jun-21 11:58N 44°06' E 009°50'0 0.0
2017-Jun-21 11:28N 44°06' E 009°50'0 0.0
2017-Jun-21 10:58N 44°06' E 009°50'0 0.0
2017-Jun-21 10:28N 44°06' E 009°50'0 0.0
2017-Jun-21 09:58N 44°06' E 009°50'0 0.0
2017-Jun-21 09:28N 44°06' E 009°50'0 0.0
2017-Jun-21 08:58N 44°06' E 009°50'0 0.0
2017-Jun-21 08:28N 44°06' E 009°50'0 0.0
2017-Jun-21 07:58N 44°06' E 009°50'0 0.0
2017-Jun-21 07:28N 44°06' E 009°50'0 0.0
2017-Jun-21 06:58N 44°06' E 009°50'0 0.0
2017-Jun-21 06:28N 44°06' E 009°50'0 0.0
2017-Jun-21 05:58N 44°06' E 009°50'0 0.0
2017-Jun-21 05:28N 44°06' E 009°50'0 0.0
2017-Jun-21 04:59N 44°06' E 009°50'0 0.9
2017-Jun-21 04:30N 44°06' E 009°51'3 6.5
2017-Jun-21 04:00N 44°03' E 009°52'4 8.4
2017-Jun-21 03:30N 43°59' E 009°55'611.5
2017-Jun-21 03:00N 43°58' E 009°47'611.5
2017-Jun-21 02:30N 43°55' E 009°39'611.8
2017-Jun-21 02:00N 43°53' E 009°32'611.8
2017-Jun-21 01:30N 43°51' E 009°24'611.8
2017-Jun-21 01:00N 43°49' E 009°17'611.8
2017-Jun-21 00:30N 43°47' E 009°09'611.7
2017-Jun-21 00:00N 43°45' E 009°02'611.6
2017-Jun-20 23:30N 43°43' E 008°54'611.7
2017-Jun-20 22:59N 43°42' E 008°46'611.6
2017-Jun-20 22:30N 43°41' E 008°38'611.6
2017-Jun-20 22:00N 43°40' E 008°30'611.8
2017-Jun-20 21:30N 43°39' E 008°22'1528.3
2017-Jun-20 21:00N 43°30' E 008°06'9504.6 180 / 121018.0 23.018.321.0
2017-Jun-20 20:58N 43°37' E 008°14'511.7
2017-Jun-20 20:30N 43°35' E 008°07'612.3
2017-Jun-20 20:00N 43°34' E 007°59'612.5
2017-Jun-20 19:30N 43°32' E 007°50'611.8
2017-Jun-20 19:00N 43°32' E 007°42'611.9
2017-Jun-20 18:30N 43°34' E 007°34'611.9
2017-Jun-20 18:00N 43°36' E 007°27'611.8
2017-Jun-20 17:30N 43°38' E 007°19'5 0.3
2017-Jun-20 04:00N 43°34' E 007°16'611.2
2017-Jun-20 03:30N 43°29' E 007°16'611.3
2017-Jun-20 03:00N 43°23' E 007°16'612.6
2017-Jun-20 02:30N 43°17' E 007°15'714.1
2017-Jun-20 02:00N 43°11' E 007°09'714.1
2017-Jun-20 01:30N 43°06' E 007°03'613.0
2017-Jun-20 01:00N 43°01' E 006°57'1412.9
2017-Jun-19 23:55N 42°50' E 006°46'512.7
2017-Jun-19 23:30N 42°47' E 006°40'1011.7
2017-Jun-19 22:38N 42°43' E 006°27'1712.2
2017-Jun-19 21:14N 42°44' E 006°04'812.9
2017-Jun-19 20:38N 42°45' E 005°53'913.5
2017-Jun-19 20:00N 42°42' E 005°42'1914.3 170 / 71016.010.8 22.017.221.0
2017-Jun-19 18:38N 42°56' E 005°24'2311.3
2017-Jun-19 16:39N 43°17' E 005°13'11 0.9
2017-Jun-19 04:41N 43°09' E 005°03'2614.0
2017-Jun-19 02:50N 42°48' E 004°42'2114.3
2017-Jun-19 01:24N 42°32' E 004°24'1014.3
2017-Jun-19 00:41N 42°24' E 004°16'2814.3
2017-Jun-18 22:42N 42°02' E 003°51'2014.4
2017-Jun-18 21:18N 41°47' E 003°34'1342.8
2017-Jun-18 21:00N 41°36' E 003°24'892.5 090 / 71014.010.8 22.017.221.0
2017-Jun-18 20:54N 41°43' E 003°29'813.8
2017-Jun-18 20:21N 41°38' E 003°21'513.9
2017-Jun-18 20:00N 41°35' E 003°16'  
Track history (hours):
 
Tides and Currents Weather Stations Pressure Air Temp Water Temp Dewpoint Dewpoint Depression Visibility Wind Speed Wind Dir Waves Ship Positions

Freedom of the Seas

Last reported at 2017-Jun-28 20:00 UTC. Time now 2017-Jun-29 01:55 UTC.
Position N 43°12' E 009°30'.

Length 339 m; draft 9 m.

Type: Passenger vessel. MMSI: 309906000.

Wind from 250 at 39 knots

Barometer 1004.0 mb
Air temperature 23.0 ° C
Visibility: greater than 10.8 NM
Dewpoint 14.6 ° C
Water temperature 21.0 ° C

Date/timePositionNaut miles runAvg speedWind from/ knotsBaromVisibWave heightAir tempDewpointWater temp
2017-Jun-28 20:00N 43°12' E 009°30'14157.1 250 / 391004.010.8 23.014.621.0
2017-Jun-28 19:54N 43°26' E 009°32'718.6
2017-Jun-28 19:31N 43°33' E 009°35'918.8
2017-Jun-28 19:01N 43°41' E 009°41'1019.1
2017-Jun-28 18:31N 43°50' E 009°48'919.0
2017-Jun-28 18:01N 43°59' E 009°52'612.7
2017-Jun-28 17:30N 44°05' E 009°51'1 2.7
2017-Jun-28 16:59N 44°06' E 009°50'0 0.0
2017-Jun-28 16:29N 44°06' E 009°50'0 0.0
2017-Jun-28 15:59N 44°06' E 009°50'0 0.0
2017-Jun-28 15:29N 44°06' E 009°50'0 0.0
2017-Jun-28 14:59N 44°06' E 009°50'0 0.0
2017-Jun-28 14:29N 44°06' E 009°50'0 0.0
2017-Jun-28 13:29N 44°06' E 009°50'0 0.0
2017-Jun-28 12:59N 44°06' E 009°50'0 0.0
2017-Jun-28 12:29N 44°06' E 009°50'0 0.0
2017-Jun-28 11:59N 44°06' E 009°50'0 0.0
2017-Jun-28 11:29N 44°06' E 009°50'0 0.0
2017-Jun-28 10:59N 44°06' E 009°50'0 0.0
2017-Jun-28 10:29N 44°06' E 009°50'0 0.0
2017-Jun-28 09:59N 44°06' E 009°50'0 0.0
2017-Jun-28 09:29N 44°06' E 009°50'0 0.0
2017-Jun-28 08:59N 44°06' E 009°50'0 0.0
2017-Jun-28 08:26N 44°06' E 009°50'0 0.0
2017-Jun-28 07:59N 44°06' E 009°50'0 0.0
2017-Jun-28 07:29N 44°06' E 009°50'0 0.0
2017-Jun-28 06:59N 44°06' E 009°50'0 0.0
2017-Jun-28 06:29N 44°06' E 009°50'0 0.0
2017-Jun-28 05:56N 44°06' E 009°50'0 0.0
2017-Jun-28 05:29N 44°06' E 009°50'0 0.0
2017-Jun-28 04:59N 44°06' E 009°50'0 0.4
2017-Jun-28 04:30N 44°06' E 009°50'3 6.1
2017-Jun-28 04:00N 44°03' E 009°52'5 9.2
2017-Jun-28 03:30N 43°60' E 009°55'510.4
2017-Jun-28 03:00N 43°58' E 009°48'510.9
2017-Jun-28 02:30N 43°56' E 009°41'510.8
2017-Jun-28 02:00N 43°54' E 009°34'611.3
2017-Jun-28 01:30N 43°52' E 009°27'612.6
2017-Jun-28 01:00N 43°49' E 009°19'612.1
2017-Jun-28 00:30N 43°47' E 009°11'611.9
2017-Jun-28 00:00N 43°46' E 009°03'611.7
2017-Jun-27 23:30N 43°44' E 008°56'611.7
2017-Jun-27 23:00N 43°43' E 008°48'611.6
2017-Jun-27 22:30N 43°41' E 008°40'611.5
2017-Jun-27 22:00N 43°40' E 008°32'611.6
2017-Jun-27 21:30N 43°38' E 008°25'611.7
2017-Jun-27 21:00N 43°36' E 008°17'611.6
2017-Jun-27 20:30N 43°35' E 008°09'611.4
2017-Jun-27 19:58N 43°34' E 008°01'31 2.0
2017-Jun-27 04:10N 43°37' E 007°18'310.8
2017-Jun-27 03:52N 43°33' E 007°17'411.1
2017-Jun-27 03:28N 43°29' E 007°16'511.7
2017-Jun-27 03:01N 43°24' E 007°14'612.1
2017-Jun-27 02:31N 43°18' E 007°12'712.6
2017-Jun-27 01:58N 43°12' E 007°09'3312.6
2017-Jun-26 23:21N 42°47' E 006°39'512.9
2017-Jun-26 22:58N 42°45' E 006°33'1312.2
2017-Jun-26 21:56N 42°43' E 006°15'512.7
2017-Jun-26 21:30N 42°43' E 006°08'713.0
2017-Jun-26 20:56N 42°45' E 005°58'612.9
2017-Jun-26 20:28N 42°46' E 005°50'612.6
2017-Jun-26 19:58N 42°48' E 005°42'84 4.1
2017-Jun-25 23:24N 42°11' E 004°01'2214.3
2017-Jun-25 21:53N 41°54' E 003°42'514.0
2017-Jun-25 21:30N 41°50' E 003°38'713.8
2017-Jun-25 20:59N 41°45' E 003°31'713.7
2017-Jun-25 20:26N 41°40' E 003°24'613.8
2017-Jun-25 20:00N 41°36' E 003°18'713.8
2017-Jun-25 19:30N 41°32' E 003°10'713.8
2017-Jun-25 19:00N 41°28' E 003°02'714.0
2017-Jun-25 18:29N 41°25' E 002°54'714.0
2017-Jun-25 18:00N 41°22' E 002°46'713.9
2017-Jun-25 17:30N 41°20' E 002°37'714.1
2017-Jun-25 16:59N 41°19' E 002°27'714.3
2017-Jun-25 16:30N 41°17' E 002°18'611.4
2017-Jun-25 15:59N 41°18' E 002°10'4 7.6
2017-Jun-25 15:29N 41°21' E 002°11'0 0.0
2017-Jun-25 09:56N 41°22' E 002°11'0 0.0
2017-Jun-25 09:14N 41°22' E 002°11'0 0.0
2017-Jun-25 08:50N 41°22' E 002°11'0 0.0
2017-Jun-25 03:51N 41°22' E 002°11'0 1.2
2017-Jun-25 03:28N 41°21' E 002°10'1 3.0
2017-Jun-25 03:00N 41°20' E 002°10'4 8.8
2017-Jun-25 02:30N 41°16' E 002°13'612.5
2017-Jun-25 02:00N 41°16' E 002°21'613.0
2017-Jun-25 01:30N 41°16' E 002°30'713.6
2017-Jun-25 01:00N 41°17' E 002°39'714.1
2017-Jun-25 00:30N 41°17' E 002°48'714.0
2017-Jun-25 00:00N 41°17' E 002°58'714.2
2017-Jun-24 23:30N 41°16' E 003°07'714.0
2017-Jun-24 23:00N 41°16' E 003°16'915.4
2017-Jun-24 22:25N 41°15' E 003°28'717.9
2017-Jun-24 22:00N 41°16' E 003°38'1716.7
2017-Jun-24 21:00N 41°12' E 004°00'27517.1 200 / 161017.010.8 25.018.821.0
2017-Jun-24 04:51N 41°19' E 010°06'616.9
2017-Jun-24 04:29N 41°17' E 010°14'816.5
2017-Jun-24 03:59N 41°16' E 010°25'13416.8
2017-Jun-23 20:00N 40°30' E 013°12'2222.0 270 / 121017.010.8 24.019.421.0
2017-Jun-23 18:59N 40°31' E 013°41'817.2
2017-Jun-23 18:31N 40°32' E 013°52'917.2
2017-Jun-23 18:00N 40°36' E 014°01'917.6
2017-Jun-23 17:30N 40°43' E 014°09'816.7
2017-Jun-23 17:01N 40°49' E 014°17'2 2.9
2017-Jun-23 16:27N 40°50' E 014°16'0 0.0
2017-Jun-23 14:51N 40°50' E 014°16'0 0.0
2017-Jun-23 14:27N 40°50' E 014°16'0 0.0
2017-Jun-23 12:06N 40°50' E 014°16'0 0.0
2017-Jun-23 05:33N 40°50' E 014°16'0 0.0
2017-Jun-23 05:21N 40°50' E 014°16'1 0.6
2017-Jun-23 04:20N 40°50' E 014°16'1 4.3
2017-Jun-23 04:00N 40°49' E 014°17'1715.3
2017-Jun-23 02:54N 40°37' E 014°01'717.7
2017-Jun-23 02:30N 40°37' E 013°52'917.7
2017-Jun-23 02:00N 40°37' E 013°41'917.7
2017-Jun-23 01:31N 40°38' E 013°29'1717.6
2017-Jun-23 00:33N 40°37' E 013°07'117.9
2017-Jun-23 00:31N 40°37' E 013°06'1117.6
2017-Jun-22 23:53N 40°38' E 012°51'7018.1
2017-Jun-22 20:00N 41°30' E 011°48'41 2.3 250 / 161018.010.8 25.018.821.0
2017-Jun-22 02:26N 42°05' E 011°19'817.6
2017-Jun-22 02:00N 42°07' E 011°09'917.8
2017-Jun-22 01:30N 42°09' E 010°58'917.6
2017-Jun-22 01:00N 42°14' E 010°48'917.4
2017-Jun-22 00:28N 42°20' E 010°38'817.3
2017-Jun-21 23:59N 42°25' E 010°29'2217.7
2017-Jun-21 22:43N 42°41' E 010°07'718.1
2017-Jun-21 22:22N 42°44' E 009°59'617.6
2017-Jun-21 22:00N 42°47' E 009°52'1617.4
2017-Jun-21 21:06N 42°58' E 009°37'1020.0
2017-Jun-21 20:36N 43°08' E 009°34'220.3
2017-Jun-21 20:30N 43°10' E 009°33'1020.3
2017-Jun-21 20:00N 43°20' E 009°31'81392.9
2017-Jun-21 20:00N 43°12' E 009°30'1837.0 160 / 11017.010.8 24.017.721.0
2017-Jun-21 19:30N 43°30' E 009°33'918.2
2017-Jun-21 19:00N 43°38' E 009°39'918.2
2017-Jun-21 18:30N 43°46' E 009°45'918.2
2017-Jun-21 18:00N 43°54' E 009°51'917.6
2017-Jun-21 17:30N 44°03' E 009°52'4 8.1
2017-Jun-21 17:00N 44°06' E 009°50'0 0.1
2017-Jun-21 16:28N 44°06' E 009°50'0 0.0
2017-Jun-21 15:58N 44°06' E 009°50'0 0.0
2017-Jun-21 15:28N 44°06' E 009°50'0 0.0
2017-Jun-21 14:58N 44°06' E 009°50'0 0.0
2017-Jun-21 14:28N 44°06' E 009°50'0 0.0
2017-Jun-21 13:28N 44°06' E 009°50'0 0.0
2017-Jun-21 12:58N 44°06' E 009°50'0 0.0
2017-Jun-21 12:28N 44°06' E 009°50'0 0.0
2017-Jun-21 11:58N 44°06' E 009°50'0 0.0
2017-Jun-21 11:28N 44°06' E 009°50'0 0.0
2017-Jun-21 10:58N 44°06' E 009°50'0 0.0
2017-Jun-21 10:28N 44°06' E 009°50'0 0.0
2017-Jun-21 09:58N 44°06' E 009°50'0 0.0
2017-Jun-21 09:28N 44°06' E 009°50'0 0.0
2017-Jun-21 08:58N 44°06' E 009°50'0 0.0
2017-Jun-21 08:28N 44°06' E 009°50'0 0.0
2017-Jun-21 07:58N 44°06' E 009°50'0 0.0
2017-Jun-21 07:28N 44°06' E 009°50'0 0.0
2017-Jun-21 06:58N 44°06' E 009°50'0 0.0
2017-Jun-21 06:28N 44°06' E 009°50'0 0.0
2017-Jun-21 05:58N 44°06' E 009°50'0 0.0
2017-Jun-21 05:28N 44°06' E 009°50'0 0.0
2017-Jun-21 04:59N 44°06' E 009°50'0 0.9
2017-Jun-21 04:30N 44°06' E 009°51'3 6.5
2017-Jun-21 04:00N 44°03' E 009°52'4 8.4
2017-Jun-21 03:30N 43°59' E 009°55'611.5
2017-Jun-21 03:00N 43°58' E 009°47'611.5
2017-Jun-21 02:30N 43°55' E 009°39'611.8
2017-Jun-21 02:00N 43°53' E 009°32'611.8
2017-Jun-21 01:30N 43°51' E 009°24'611.8
2017-Jun-21 01:00N 43°49' E 009°17'611.8
2017-Jun-21 00:30N 43°47' E 009°09'611.7
2017-Jun-21 00:00N 43°45' E 009°02'611.6
2017-Jun-20 23:30N 43°43' E 008°54'611.7
2017-Jun-20 22:59N 43°42' E 008°46'611.6
2017-Jun-20 22:30N 43°41' E 008°38'611.6
2017-Jun-20 22:00N 43°40' E 008°30'611.8
2017-Jun-20 21:30N 43°39' E 008°22'1528.3
2017-Jun-20 21:00N 43°30' E 008°06'9504.6 180 / 121018.0 23.018.321.0
2017-Jun-20 20:58N 43°37' E 008°14'511.7
2017-Jun-20 20:30N 43°35' E 008°07'612.3
2017-Jun-20 20:00N 43°34' E 007°59'612.5
2017-Jun-20 19:30N 43°32' E 007°50'611.8
2017-Jun-20 19:00N 43°32' E 007°42'611.9
2017-Jun-20 18:30N 43°34' E 007°34'611.9
2017-Jun-20 18:00N 43°36' E 007°27'611.8
2017-Jun-20 17:30N 43°38' E 007°19'5 0.3
2017-Jun-20 04:00N 43°34' E 007°16'611.2
2017-Jun-20 03:30N 43°29' E 007°16'611.3
2017-Jun-20 03:00N 43°23' E 007°16'612.6
2017-Jun-20 02:30N 43°17' E 007°15'714.1
2017-Jun-20 02:00N 43°11' E 007°09'714.1
2017-Jun-20 01:30N 43°06' E 007°03'613.0
2017-Jun-20 01:00N 43°01' E 006°57'1412.9
2017-Jun-19 23:55N 42°50' E 006°46'512.7
2017-Jun-19 23:30N 42°47' E 006°40'1011.7
2017-Jun-19 22:38N 42°43' E 006°27'1712.2
2017-Jun-19 21:14N 42°44' E 006°04'812.9
2017-Jun-19 20:38N 42°45' E 005°53'913.5
2017-Jun-19 20:00N 42°42' E 005°42'1914.3 170 / 71016.010.8 22.017.221.0
2017-Jun-19 18:38N 42°56' E 005°24'2311.3
2017-Jun-19 16:39N 43°17' E 005°13'11 0.9
2017-Jun-19 04:41N 43°09' E 005°03'2614.0
2017-Jun-19 02:50N 42°48' E 004°42'2114.3
2017-Jun-19 01:24N 42°32' E 004°24'1014.3
2017-Jun-19 00:41N 42°24' E 004°16'2814.3
2017-Jun-18 22:42N 42°02' E 003°51'2014.4
2017-Jun-18 21:18N 41°47' E 003°34'1342.8
2017-Jun-18 21:00N 41°36' E 003°24'892.5 090 / 71014.010.8 22.017.221.0
2017-Jun-18 20:54N 41°43' E 003°29'813.8
2017-Jun-18 20:21N 41°38' E 003°21'513.9
2017-Jun-18 20:00N 41°35' E 003°16'  

Dump ship's entire track history